createdAt,value
2019-04-25T00:00:13.823Z,1000.62
2019-04-25T00:01:14.195Z,1000.60
2019-04-25T00:02:14.666Z,1000.61
2019-04-25T00:03:13.811Z,1000.58
2019-04-25T00:04:13.781Z,1000.60
2019-04-25T00:05:13.786Z,1000.65
2019-04-25T00:06:13.783Z,1000.67
2019-04-25T00:07:13.748Z,1000.69
2019-04-25T00:08:13.751Z,1000.73
2019-04-25T00:09:14.659Z,1000.66
2019-04-25T00:10:13.913Z,1000.67
2019-04-25T00:11:14.179Z,1000.68
2019-04-25T00:12:13.698Z,1000.63
2019-04-25T00:13:14.670Z,1000.69
2019-04-25T00:14:14.661Z,1000.71
2019-04-25T00:15:13.662Z,1000.85
2019-04-25T00:16:13.662Z,1000.87
2019-04-25T00:17:13.656Z,1000.85
2019-04-25T00:18:13.630Z,1000.72
2019-04-25T00:19:14.163Z,1000.77
2019-04-25T00:20:13.608Z,1000.78
2019-04-25T00:21:13.626Z,1000.70
2019-04-25T00:22:13.605Z,1000.60
2019-04-25T00:23:13.577Z,1000.60
2019-04-25T00:24:13.562Z,1000.59
2019-04-25T00:25:17.497Z,1000.57
2019-04-25T00:26:13.569Z,1000.58
2019-04-25T00:27:14.195Z,1000.58
2019-04-25T00:28:14.171Z,1000.61
2019-04-25T00:29:13.508Z,1000.54
2019-04-25T00:30:14.174Z,1000.61
2019-04-25T00:31:13.510Z,1000.59
2019-04-25T00:32:13.491Z,1000.55
2019-04-25T00:33:13.482Z,1000.56
2019-04-25T00:34:13.457Z,1000.45
2019-04-25T00:35:13.445Z,1000.47
2019-04-25T00:36:13.494Z,1000.50
2019-04-25T00:37:14.001Z,1000.44
2019-04-25T00:38:13.417Z,1000.49
2019-04-25T00:39:13.400Z,1000.48
2019-04-25T00:40:13.630Z,1000.53
2019-04-25T00:41:13.420Z,1000.51
2019-04-25T00:42:13.383Z,1000.52
2019-04-25T00:43:13.369Z,1000.43
2019-04-25T00:44:13.347Z,1000.46
2019-04-25T00:45:13.968Z,1000.45
2019-04-25T00:46:13.336Z,1000.39
2019-04-25T00:47:13.316Z,1000.37
2019-04-25T00:48:14.185Z,1000.43
2019-04-25T00:49:13.298Z,1000.37
2019-04-25T00:50:13.283Z,1000.36
2019-04-25T00:51:13.311Z,1000.35
2019-04-25T00:52:13.255Z,1000.28
2019-04-25T00:53:14.182Z,1000.28
2019-04-25T00:54:13.240Z,1000.26
2019-04-25T00:55:25.916Z,1000.27
2019-04-25T00:56:13.210Z,1000.32
2019-04-25T00:57:13.219Z,1000.27
2019-04-25T00:58:13.187Z,1000.32
2019-04-25T00:59:13.980Z,1000.27
2019-04-25T01:00:13.206Z,1000.23
2019-04-25T01:01:13.158Z,1000.25
2019-04-25T01:02:13.195Z,1000.18
2019-04-25T01:03:13.134Z,1000.31
2019-04-25T01:04:13.126Z,1000.25
2019-04-25T01:05:13.680Z,1000.26
2019-04-25T01:06:13.114Z,1000.33
2019-04-25T01:07:13.111Z,1000.31
2019-04-25T01:08:13.104Z,1000.26
2019-04-25T01:09:13.068Z,1000.26
2019-04-25T01:10:13.056Z,1000.23
2019-04-25T01:11:13.065Z,1000.23
2019-04-25T01:12:13.046Z,1000.22
2019-04-25T01:13:13.680Z,1000.22
2019-04-25T01:14:13.013Z,1000.23
2019-04-25T01:15:13.004Z,1000.22
2019-04-25T01:16:12.999Z,1000.25
2019-04-25T01:17:12.998Z,1000.24
2019-04-25T01:18:12.970Z,1000.28
2019-04-25T01:19:13.422Z,1000.24
2019-04-25T01:20:13.966Z,1000.18
2019-04-25T01:21:14.137Z,1000.30
2019-04-25T01:22:14.450Z,1000.31
2019-04-25T01:23:13.782Z,1000.33
2019-04-25T01:24:14.133Z,1000.32
2019-04-25T01:25:13.810Z,1000.33
2019-04-25T01:26:13.232Z,1000.32
2019-04-25T01:27:13.476Z,1000.30
2019-04-25T01:28:13.291Z,1000.33
2019-04-25T01:29:13.600Z,1000.35
2019-04-25T01:30:14.115Z,1000.46
2019-04-25T01:31:13.752Z,1000.54
2019-04-25T01:32:13.946Z,1000.56
2019-04-25T01:33:13.666Z,1000.60
2019-04-25T01:34:14.233Z,1000.58
2019-04-25T01:35:13.954Z,1000.56
2019-04-25T01:36:13.366Z,1000.46
2019-04-25T01:37:13.953Z,1000.47
2019-04-25T01:38:13.851Z,1000.51
2019-04-25T01:39:14.376Z,1000.52
2019-04-25T01:40:14.086Z,1000.47
2019-04-25T01:41:14.476Z,1000.52
2019-04-25T01:42:13.820Z,1000.37
2019-04-25T01:43:13.780Z,1000.45
2019-04-25T01:44:14.368Z,1000.50
2019-04-25T01:45:14.079Z,1000.56
2019-04-25T01:46:14.601Z,1000.56
2019-04-25T01:47:14.128Z,1000.62
2019-04-25T01:48:13.646Z,1000.59
2019-04-25T01:49:14.005Z,1000.55
2019-04-25T01:50:13.747Z,1000.56
2019-04-25T01:51:14.221Z,1000.59
2019-04-25T01:52:13.688Z,1000.66
2019-04-25T01:53:14.474Z,1000.71
2019-04-25T01:54:14.115Z,1000.74
2019-04-25T01:55:13.734Z,1000.72
2019-04-25T01:56:13.574Z,1000.73
2019-04-25T01:57:14.141Z,1000.71
2019-04-25T01:58:13.713Z,1000.72
2019-04-25T01:59:13.499Z,1000.78
2019-04-25T02:00:13.950Z,1000.75
2019-04-25T02:01:14.222Z,1000.70
2019-04-25T02:02:14.058Z,1000.65
2019-04-25T02:03:13.493Z,1000.75
2019-04-25T02:04:13.208Z,1000.67
2019-04-25T02:05:13.909Z,1000.66
2019-04-25T02:06:13.619Z,1000.62
2019-04-25T02:07:13.510Z,1000.62
2019-04-25T02:08:14.185Z,1000.60
2019-04-25T02:09:13.687Z,1000.68
2019-04-25T02:10:13.467Z,1000.70
2019-04-25T02:11:14.119Z,1000.62
2019-04-25T02:12:13.522Z,1000.60
2019-04-25T02:13:13.562Z,1000.64
2019-04-25T02:14:13.729Z,1000.69
2019-04-25T02:15:13.783Z,1000.63
2019-04-25T02:16:14.222Z,1000.64
2019-04-25T02:17:14.028Z,1000.61
2019-04-25T02:18:13.695Z,1000.68
2019-04-25T02:19:12.318Z,1000.62
2019-04-25T02:20:13.865Z,1000.65
2019-04-25T02:21:13.731Z,1000.64
2019-04-25T02:22:12.272Z,1000.59
2019-04-25T02:23:14.023Z,1000.68
2019-04-25T02:24:13.725Z,1000.56
2019-04-25T02:25:13.353Z,1000.61
2019-04-25T02:26:16.737Z,1000.59
2019-04-25T02:27:13.541Z,1000.58
2019-04-25T02:28:13.970Z,1000.54
2019-04-25T02:29:13.647Z,1000.62
2019-04-25T02:30:12.177Z,1000.62
2019-04-25T02:31:17.585Z,1000.62
2019-04-25T02:32:14.272Z,1000.60
2019-04-25T02:33:14.201Z,1000.57
2019-04-25T02:34:17.469Z,1000.60
2019-04-25T02:35:14.509Z,1000.65
2019-04-25T02:36:14.467Z,1000.73
2019-04-25T02:37:14.591Z,1000.72
2019-04-25T02:38:16.488Z,1000.75
2019-04-25T02:39:12.182Z,1000.74
2019-04-25T02:40:14.190Z,1000.74
2019-04-25T02:41:14.493Z,1000.74
2019-04-25T02:42:14.334Z,1000.71
2019-04-25T02:43:14.154Z,1000.67
2019-04-25T02:44:12.040Z,1000.76
2019-04-25T02:45:16.234Z,1000.77
2019-04-25T02:46:15.044Z,1000.76
2019-04-25T02:47:14.643Z,1000.84
2019-04-25T02:48:14.124Z,1000.82
2019-04-25T02:49:28.798Z,1000.84
2019-04-25T02:50:11.965Z,1000.94
2019-04-25T02:51:14.452Z,1000.92
2019-04-25T02:52:15.786Z,1001.00
2019-04-25T02:53:13.986Z,1000.83
2019-04-25T02:54:13.999Z,1000.87
2019-04-25T02:55:28.123Z,1000.89
2019-04-25T02:56:27.698Z,1000.94
2019-04-25T02:57:11.883Z,1000.90
2019-04-25T02:58:13.937Z,1000.90
2019-04-25T02:59:11.919Z,1000.89
2019-04-25T03:00:11.856Z,1000.90
2019-04-25T03:01:19.571Z,1000.91
2019-04-25T03:02:11.832Z,1000.84
2019-04-25T03:03:11.835Z,1000.85
2019-04-25T03:04:14.231Z,1000.85
2019-04-25T03:05:14.064Z,1000.80
2019-04-25T03:06:11.786Z,1000.85
2019-04-25T03:07:11.788Z,1000.86
2019-04-25T03:08:14.181Z,1000.80
2019-04-25T03:09:11.796Z,1000.89
2019-04-25T03:10:11.792Z,1000.88
2019-04-25T03:11:14.668Z,1000.91
2019-04-25T03:12:26.580Z,1000.91
2019-04-25T03:13:12.540Z,1000.91
2019-04-25T03:14:11.739Z,1000.89
2019-04-25T03:15:11.704Z,1000.90
2019-04-25T03:16:14.011Z,1000.95
2019-04-25T03:17:14.008Z,1000.93
2019-04-25T03:18:13.085Z,1000.89
2019-04-25T03:19:14.116Z,1000.89
2019-04-25T03:20:14.593Z,1000.80
2019-04-25T03:21:14.880Z,1000.81
2019-04-25T03:22:12.035Z,1000.77
2019-04-25T03:23:11.614Z,1000.81
2019-04-25T03:24:13.944Z,1000.77
2019-04-25T03:25:16.437Z,1000.76
2019-04-25T03:26:11.575Z,1000.69
2019-04-25T03:27:11.561Z,1000.67
2019-04-25T03:28:11.544Z,1000.71
2019-04-25T03:29:11.539Z,1000.73
2019-04-25T03:30:14.093Z,1000.71
2019-04-25T03:31:18.683Z,1000.76
2019-04-25T03:32:15.580Z,1000.81
2019-04-25T03:33:18.116Z,1000.78
2019-04-25T03:34:14.727Z,1000.81
2019-04-25T03:35:12.996Z,1000.71
2019-04-25T03:36:11.451Z,1000.78
2019-04-25T03:37:13.760Z,1000.76
2019-04-25T03:38:11.433Z,1000.69
2019-04-25T03:39:11.446Z,1000.79
2019-04-25T03:40:12.299Z,1000.79
2019-04-25T03:41:11.396Z,1000.80
2019-04-25T03:42:12.033Z,1000.77
2019-04-25T03:43:11.378Z,1000.77
2019-04-25T03:44:12.145Z,1000.77
2019-04-25T03:45:11.690Z,1000.83
2019-04-25T03:46:11.343Z,1000.81
2019-04-25T03:47:11.592Z,1000.80
2019-04-25T03:48:11.714Z,1000.78
2019-04-25T03:49:11.845Z,1000.79
2019-04-25T03:50:12.315Z,1000.82
2019-04-25T03:51:12.175Z,1000.77
2019-04-25T03:52:12.243Z,1000.79
2019-04-25T03:53:12.083Z,1000.73
2019-04-25T03:54:12.211Z,1000.77
2019-04-25T03:55:12.365Z,1000.72
2019-04-25T03:56:11.255Z,1000.73
2019-04-25T03:57:11.276Z,1000.72
2019-04-25T03:58:11.733Z,1000.74
2019-04-25T03:59:14.192Z,1000.79
2019-04-25T04:00:13.716Z,1000.68
2019-04-25T04:01:11.189Z,1000.77
2019-04-25T04:02:11.693Z,1000.80
2019-04-25T04:03:11.454Z,1000.70
2019-04-25T04:04:11.194Z,1000.77
2019-04-25T04:05:11.462Z,1000.81
2019-04-25T04:06:11.647Z,1000.81
2019-04-25T04:07:12.711Z,1000.70
2019-04-25T04:08:11.881Z,1000.72
2019-04-25T04:09:11.838Z,1000.73
2019-04-25T04:10:12.581Z,1000.78
2019-04-25T04:11:12.060Z,1000.77
2019-04-25T04:12:11.061Z,1000.73
2019-04-25T04:13:11.041Z,1000.67
2019-04-25T04:14:11.063Z,1000.68
2019-04-25T04:15:11.039Z,1000.66
2019-04-25T04:16:11.016Z,1000.66
2019-04-25T04:17:11.102Z,1000.64
2019-04-25T04:18:10.992Z,1000.69
2019-04-25T04:19:10.995Z,1000.75
2019-04-25T04:20:11.193Z,1000.72
2019-04-25T04:21:11.156Z,1000.73
2019-04-25T04:22:11.207Z,1000.75
2019-04-25T04:23:11.333Z,1000.77
2019-04-25T04:24:11.726Z,1000.81
2019-04-25T04:25:11.619Z,1000.80
2019-04-25T04:26:13.389Z,1000.80
2019-04-25T04:27:12.027Z,1000.88
2019-04-25T04:28:11.879Z,1000.90
2019-04-25T04:29:10.878Z,1000.92
2019-04-25T04:30:12.084Z,1000.93
2019-04-25T04:31:10.845Z,1000.95
2019-04-25T04:32:10.835Z,1000.94
2019-04-25T04:33:23.152Z,1000.91
2019-04-25T04:34:10.829Z,1000.91
2019-04-25T04:35:10.837Z,1000.89
2019-04-25T04:36:10.908Z,1000.88
2019-04-25T04:37:11.146Z,1000.88
2019-04-25T04:38:11.620Z,1000.83
2019-04-25T04:39:10.759Z,1000.86
2019-04-25T04:40:11.635Z,1000.83
2019-04-25T04:41:11.558Z,1000.80
2019-04-25T04:42:11.639Z,1000.83
2019-04-25T04:43:11.680Z,1000.84
2019-04-25T04:44:10.703Z,1000.83
2019-04-25T04:45:12.386Z,1000.86
2019-04-25T04:46:10.694Z,1000.83
2019-04-25T04:47:10.669Z,1000.79
2019-04-25T04:48:10.664Z,1000.94
2019-04-25T04:49:11.183Z,1000.94
2019-04-25T04:50:10.647Z,1000.94
2019-04-25T04:51:10.639Z,1000.93
2019-04-25T04:52:11.181Z,1000.94
2019-04-25T04:53:10.994Z,1001.03
2019-04-25T04:54:11.001Z,1000.94
2019-04-25T04:55:11.611Z,1000.94
2019-04-25T04:56:11.321Z,1000.99
2019-04-25T04:57:23.276Z,1001.02
2019-04-25T04:58:11.174Z,1000.99
2019-04-25T04:59:11.191Z,1001.00
2019-04-25T05:00:11.062Z,1001.04
2019-04-25T05:01:11.110Z,1001.07
2019-04-25T05:02:11.446Z,1001.10
2019-04-25T05:03:11.178Z,1001.08
2019-04-25T05:04:10.696Z,1001.05
2019-04-25T05:05:10.619Z,1001.15
2019-04-25T05:06:10.953Z,1001.17
2019-04-25T05:07:11.072Z,1001.18
2019-04-25T05:08:11.081Z,1001.25
2019-04-25T05:09:12.049Z,1001.17
2019-04-25T05:10:11.273Z,1001.26
2019-04-25T05:11:12.299Z,1001.23
2019-04-25T05:12:10.725Z,1001.26
2019-04-25T05:13:11.966Z,1001.28
2019-04-25T05:14:11.842Z,1001.33
2019-04-25T05:15:10.367Z,1001.29
2019-04-25T05:16:11.156Z,1001.26
2019-04-25T05:17:10.343Z,1001.26
2019-04-25T05:18:10.330Z,1001.27
2019-04-25T05:19:11.684Z,1001.34
2019-04-25T05:20:10.321Z,1001.38
2019-04-25T05:21:10.333Z,1001.33
2019-04-25T05:22:10.284Z,1001.35
2019-04-25T05:23:10.274Z,1001.39
2019-04-25T05:24:10.265Z,1001.45
2019-04-25T05:25:10.260Z,1001.39
2019-04-25T05:26:10.259Z,1001.37
2019-04-25T05:27:10.247Z,1001.39
2019-04-25T05:28:10.231Z,1001.35
2019-04-25T05:29:10.227Z,1001.40
2019-04-25T05:30:10.212Z,1001.36
2019-04-25T05:31:10.221Z,1001.38
2019-04-25T05:32:10.181Z,1001.33
2019-04-25T05:33:10.688Z,1001.37
2019-04-25T05:34:10.166Z,1001.33
2019-04-25T05:35:10.160Z,1001.29
2019-04-25T05:36:10.157Z,1001.23
2019-04-25T05:37:10.126Z,1001.30
2019-04-25T05:38:10.117Z,1001.25
2019-04-25T05:39:10.100Z,1001.24
2019-04-25T05:40:10.123Z,1001.22
2019-04-25T05:41:10.099Z,1001.19
2019-04-25T05:42:10.069Z,1001.15
2019-04-25T05:43:10.073Z,1001.19
2019-04-25T05:44:10.053Z,1001.19
2019-04-25T05:45:10.070Z,1001.24
2019-04-25T05:46:10.049Z,1001.29
2019-04-25T05:47:10.018Z,1001.29
2019-04-25T05:48:10.693Z,1001.33
2019-04-25T05:49:09.990Z,1001.30
2019-04-25T05:50:09.976Z,1001.43
2019-04-25T05:51:09.991Z,1001.44
2019-04-25T05:52:09.956Z,1001.36
2019-04-25T05:53:09.946Z,1001.30
2019-04-25T05:54:09.937Z,1001.28
2019-04-25T05:55:10.699Z,1001.20
2019-04-25T05:56:09.950Z,1001.22
2019-04-25T05:57:09.903Z,1001.13
2019-04-25T05:58:09.894Z,1001.17
2019-04-25T05:59:09.886Z,1001.15
2019-04-25T06:00:10.693Z,1001.13
2019-04-25T06:01:09.898Z,1001.06
2019-04-25T06:02:09.843Z,1001.05
2019-04-25T06:03:10.691Z,1001.11
2019-04-25T06:04:10.689Z,1001.21
2019-04-25T06:05:10.695Z,1001.26
2019-04-25T06:06:09.805Z,1001.25
2019-04-25T06:07:09.810Z,1001.22
2019-04-25T06:08:10.700Z,1001.24
2019-04-25T06:09:09.775Z,1001.33
2019-04-25T06:10:09.756Z,1001.40
2019-04-25T06:11:09.749Z,1001.45
2019-04-25T06:12:09.751Z,1001.50
2019-04-25T06:13:09.741Z,1001.55
2019-04-25T06:14:09.714Z,1001.65
2019-04-25T06:15:09.704Z,1001.64
2019-04-25T06:16:09.705Z,1001.69
2019-04-25T06:17:09.721Z,1001.70
2019-04-25T06:18:09.669Z,1001.75
2019-04-25T06:19:14.072Z,1001.71
2019-04-25T06:20:09.651Z,1001.67
2019-04-25T06:21:09.643Z,1001.69
2019-04-25T06:22:09.790Z,1001.69
2019-04-25T06:23:09.612Z,1001.60
2019-04-25T06:24:10.197Z,1001.67
2019-04-25T06:25:13.744Z,1001.65
2019-04-25T06:26:22.489Z,1001.64
2019-04-25T06:27:09.587Z,1001.64
2019-04-25T06:28:09.564Z,1001.71
2019-04-25T06:29:09.547Z,1001.76
2019-04-25T06:30:09.548Z,1001.75
2019-04-25T06:31:10.392Z,1001.74
2019-04-25T06:32:09.548Z,1001.71
2019-04-25T06:33:09.509Z,1001.76
2019-04-25T06:34:10.208Z,1001.80
2019-04-25T06:35:10.195Z,1001.74
2019-04-25T06:36:09.476Z,1001.64
2019-04-25T06:37:09.482Z,1001.72
2019-04-25T06:38:09.449Z,1001.75
2019-04-25T06:39:10.194Z,1001.81
2019-04-25T06:40:09.437Z,1001.75
2019-04-25T06:41:09.424Z,1001.79
2019-04-25T06:42:09.425Z,1001.77
2019-04-25T06:43:09.397Z,1001.74
2019-04-25T06:44:09.405Z,1001.73
2019-04-25T06:45:10.220Z,1001.66
2019-04-25T06:46:09.371Z,1001.63
2019-04-25T06:47:09.362Z,1001.70
2019-04-25T06:48:09.345Z,1001.70
2019-04-25T06:49:09.327Z,1001.72
2019-04-25T06:50:09.336Z,1001.73
2019-04-25T06:51:10.196Z,1001.72
2019-04-25T06:52:09.318Z,1001.70
2019-04-25T06:53:10.193Z,1001.70
2019-04-25T06:54:09.272Z,1001.74
2019-04-25T06:55:09.264Z,1001.73
2019-04-25T06:56:09.253Z,1001.74
2019-04-25T06:57:09.260Z,1001.74
2019-04-25T06:58:12.304Z,1001.77
2019-04-25T06:59:09.271Z,1001.75
2019-04-25T07:00:09.208Z,1001.80
2019-04-25T07:01:09.201Z,1001.76
2019-04-25T07:02:09.218Z,1001.79
2019-04-25T07:03:09.190Z,1001.74
2019-04-25T07:04:09.175Z,1001.81
2019-04-25T07:05:09.162Z,1001.85
2019-04-25T07:06:09.177Z,1001.86
2019-04-25T07:07:12.048Z,1001.78
2019-04-25T07:08:09.700Z,1001.81
2019-04-25T07:09:09.708Z,1001.81
2019-04-25T07:10:09.121Z,1001.88
2019-04-25T07:11:09.096Z,1001.93
2019-04-25T07:12:09.084Z,1001.89
2019-04-25T07:13:09.085Z,1001.93
2019-04-25T07:14:09.067Z,1001.98
2019-04-25T07:15:09.083Z,1001.95
2019-04-25T07:16:09.044Z,1001.91
2019-04-25T07:17:09.044Z,1001.94
2019-04-25T07:18:09.214Z,1002.01
2019-04-25T07:19:09.741Z,1002.00
2019-04-25T07:20:08.998Z,1002.04
2019-04-25T07:21:08.986Z,1001.99
2019-04-25T07:22:08.971Z,1001.98
2019-04-25T07:23:09.212Z,1002.03
2019-04-25T07:24:08.956Z,1002.04
2019-04-25T07:25:09.731Z,1002.06
2019-04-25T07:26:08.934Z,1002.10
2019-04-25T07:27:08.916Z,1002.15
2019-04-25T07:28:21.519Z,1002.12
2019-04-25T07:29:08.891Z,1002.08
2019-04-25T07:30:08.880Z,1002.16
2019-04-25T07:31:09.700Z,1002.21
2019-04-25T07:32:08.869Z,1002.16
2019-04-25T07:33:08.880Z,1002.20
2019-04-25T07:34:09.694Z,1002.20
2019-04-25T07:35:09.698Z,1002.23
2019-04-25T07:36:08.823Z,1002.28
2019-04-25T07:37:09.707Z,1002.32
2019-04-25T07:38:09.245Z,1002.34
2019-04-25T07:39:10.620Z,1002.34
2019-04-25T07:40:08.786Z,1002.37
2019-04-25T07:41:08.767Z,1002.41
2019-04-25T07:42:08.810Z,1002.41
2019-04-25T07:43:08.759Z,1002.43
2019-04-25T07:44:08.728Z,1002.35
2019-04-25T07:45:08.791Z,1002.38
2019-04-25T07:46:08.708Z,1002.36
2019-04-25T07:47:08.695Z,1002.31
2019-04-25T07:48:08.739Z,1002.29
2019-04-25T07:49:08.685Z,1002.29
2019-04-25T07:50:08.668Z,1002.29
2019-04-25T07:51:08.655Z,1002.23
2019-04-25T07:52:11.499Z,1002.18
2019-04-25T07:53:08.648Z,1002.19
2019-04-25T07:54:09.204Z,1002.19
2019-04-25T07:55:08.647Z,1002.23
2019-04-25T07:56:08.604Z,1002.17
2019-04-25T07:57:08.595Z,1002.20
2019-04-25T07:58:08.718Z,1002.21
2019-04-25T07:59:08.570Z,1002.14
2019-04-25T08:00:08.556Z,1002.24
2019-04-25T08:01:08.540Z,1002.29
2019-04-25T08:02:09.223Z,1002.20
2019-04-25T08:03:08.545Z,1002.30
2019-04-25T08:04:08.508Z,1002.19
2019-04-25T08:05:09.207Z,1002.22
2019-04-25T08:06:08.497Z,1002.22
2019-04-25T08:07:08.484Z,1002.22
2019-04-25T08:08:08.761Z,1002.23
2019-04-25T08:09:09.227Z,1002.20
2019-04-25T08:10:08.444Z,1002.15
2019-04-25T08:11:09.197Z,1002.17
2019-04-25T08:12:08.448Z,1002.12
2019-04-25T08:13:09.243Z,1002.16
2019-04-25T08:14:08.414Z,1002.19
2019-04-25T08:15:08.390Z,1002.17
2019-04-25T08:16:09.235Z,1002.15
2019-04-25T08:17:08.393Z,1002.21
2019-04-25T08:18:08.357Z,1002.20
2019-04-25T08:19:08.406Z,1002.23
2019-04-25T08:20:08.345Z,1002.19
2019-04-25T08:21:09.200Z,1002.18
2019-04-25T08:22:08.345Z,1002.19
2019-04-25T08:23:08.309Z,1002.19
2019-04-25T08:24:08.311Z,1002.17
2019-04-25T08:25:08.276Z,1002.20
2019-04-25T08:26:08.267Z,1002.25
2019-04-25T08:27:08.264Z,1002.28
2019-04-25T08:28:08.252Z,1002.50
2019-04-25T08:29:08.251Z,1002.45
2019-04-25T08:30:08.228Z,1002.46
2019-04-25T08:31:08.213Z,1002.49
2019-04-25T08:32:08.207Z,1002.66
2019-04-25T08:33:08.713Z,1002.43
2019-04-25T08:34:08.217Z,1002.49
2019-04-25T08:35:08.167Z,1002.44
2019-04-25T08:36:09.272Z,1002.50
2019-04-25T08:37:17.384Z,1002.43
2019-04-25T08:38:08.146Z,1002.47
2019-04-25T08:39:08.144Z,1002.51
2019-04-25T08:40:08.114Z,1002.62
2019-04-25T08:41:08.714Z,1002.59
2019-04-25T08:42:08.105Z,1002.68
2019-04-25T08:43:08.081Z,1002.81
2019-04-25T08:44:08.094Z,1002.58
2019-04-25T08:45:08.056Z,1002.57
2019-04-25T08:46:08.084Z,1002.60
2019-04-25T08:47:08.033Z,1002.60
2019-04-25T08:48:08.028Z,1002.60
2019-04-25T08:49:08.040Z,1002.62
2019-04-25T08:50:08.004Z,1002.58
2019-04-25T08:51:07.993Z,1002.58
2019-04-25T08:52:07.981Z,1002.61
2019-04-25T08:53:07.970Z,1002.62
2019-04-25T08:54:07.992Z,1002.82
2019-04-25T08:55:07.958Z,1002.63
2019-04-25T08:56:07.935Z,1002.65
2019-04-25T08:57:07.936Z,1002.66
2019-04-25T08:58:08.702Z,1002.56
2019-04-25T08:59:08.170Z,1002.60
2019-04-25T09:00:08.233Z,1002.65
2019-04-25T09:01:08.717Z,1002.51
2019-04-25T09:02:07.923Z,1002.59
2019-04-25T09:03:07.881Z,1002.53
2019-04-25T09:04:07.849Z,1002.51
2019-04-25T09:05:08.223Z,1002.58
2019-04-25T09:06:07.824Z,1002.51
2019-04-25T09:07:07.826Z,1002.52
2019-04-25T09:08:07.826Z,1002.44
2019-04-25T09:09:07.800Z,1002.59
2019-04-25T09:10:07.794Z,1002.35
2019-04-25T09:11:07.773Z,1002.37
2019-04-25T09:12:07.782Z,1002.51
2019-04-25T09:13:07.763Z,1002.40
2019-04-25T09:14:08.703Z,1002.48
2019-04-25T09:15:07.748Z,1002.40
2019-04-25T09:16:07.740Z,1002.62
2019-04-25T09:17:07.711Z,1002.46
2019-04-25T09:18:07.694Z,1002.68
2019-04-25T09:19:07.711Z,1002.56
2019-04-25T09:20:07.735Z,1002.62
2019-04-25T09:21:07.724Z,1002.48
2019-04-25T09:22:07.655Z,1002.68
2019-04-25T09:23:07.652Z,1002.67
2019-04-25T09:24:07.644Z,1002.75
2019-04-25T09:25:07.637Z,1002.57
2019-04-25T09:26:07.615Z,1002.62
2019-04-25T09:27:08.204Z,1002.67
2019-04-25T09:28:08.207Z,1002.68
2019-04-25T09:29:16.875Z,1002.66
2019-04-25T09:30:07.585Z,1002.67
2019-04-25T09:31:07.578Z,1002.68
2019-04-25T09:32:07.546Z,1002.65
2019-04-25T09:33:07.606Z,1002.75
2019-04-25T09:34:07.523Z,1002.85
2019-04-25T09:35:07.540Z,1002.63
2019-04-25T09:36:07.514Z,1002.65
2019-04-25T09:37:07.493Z,1002.83
2019-04-25T09:38:07.476Z,1002.71
2019-04-25T09:39:07.482Z,1002.70
2019-04-25T09:40:07.745Z,1002.83
2019-04-25T09:41:07.450Z,1002.65
2019-04-25T09:42:07.434Z,1002.53
2019-04-25T09:43:08.210Z,1002.62
2019-04-25T09:44:08.215Z,1002.74
2019-04-25T09:45:07.782Z,1002.55
2019-04-25T09:46:07.390Z,1002.62
2019-04-25T09:47:07.382Z,1002.49
2019-04-25T09:48:07.429Z,1002.46
2019-04-25T09:49:07.382Z,1002.55
2019-04-25T09:50:07.411Z,1002.54
2019-04-25T09:51:07.349Z,1002.50
2019-04-25T09:52:07.334Z,1002.51
2019-04-25T09:53:07.349Z,1002.56
2019-04-25T09:54:07.322Z,1002.65
2019-04-25T09:55:08.212Z,1002.49
2019-04-25T09:56:07.746Z,1002.52
2019-04-25T09:57:08.235Z,1002.50
2019-04-25T09:58:07.262Z,1002.52
2019-04-25T09:59:08.211Z,1002.41
2019-04-25T10:00:07.260Z,1002.36
2019-04-25T10:01:07.258Z,1002.48
2019-04-25T10:02:07.245Z,1002.46
2019-04-25T10:03:07.229Z,1002.49
2019-04-25T10:04:07.243Z,1002.38
2019-04-25T10:05:07.190Z,1002.66
2019-04-25T10:06:07.222Z,1002.44
2019-04-25T10:07:07.174Z,1002.52
2019-04-25T10:08:07.163Z,1002.43
2019-04-25T10:09:07.168Z,1002.50
2019-04-25T10:10:07.136Z,1002.52
2019-04-25T10:11:07.141Z,1002.55
2019-04-25T10:12:07.129Z,1002.42
2019-04-25T10:13:07.136Z,1002.48
2019-04-25T10:14:07.092Z,1002.48
2019-04-25T10:15:07.093Z,1002.30
2019-04-25T10:16:07.111Z,1002.44
2019-04-25T10:17:07.061Z,1002.47
2019-04-25T10:18:07.057Z,1002.39
2019-04-25T10:19:07.038Z,1002.46
2019-04-25T10:20:07.708Z,1002.52
2019-04-25T10:21:07.048Z,1002.40
2019-04-25T10:22:07.012Z,1002.33
2019-04-25T10:23:07.000Z,1002.39
2019-04-25T10:24:07.034Z,1002.33
2019-04-25T10:25:07.709Z,1002.35
2019-04-25T10:26:06.995Z,1002.36
2019-04-25T10:27:07.740Z,1002.46
2019-04-25T10:28:06.947Z,1002.39
2019-04-25T10:29:06.932Z,1002.49
2019-04-25T10:30:16.854Z,1002.42
2019-04-25T10:31:06.932Z,1002.47
2019-04-25T10:32:06.958Z,1002.49
2019-04-25T10:33:06.888Z,1002.47
2019-04-25T10:34:06.884Z,1002.38
2019-04-25T10:35:06.870Z,1002.51
2019-04-25T10:36:06.881Z,1002.38
2019-04-25T10:37:06.851Z,1002.53
2019-04-25T10:38:07.732Z,1002.41
2019-04-25T10:39:10.686Z,1002.33
2019-04-25T10:40:06.829Z,1002.50
2019-04-25T10:41:06.830Z,1002.41
2019-04-25T10:42:06.799Z,1002.35
2019-04-25T10:43:06.783Z,1002.51
2019-04-25T10:44:06.768Z,1002.57
2019-04-25T10:45:06.773Z,1002.27
2019-04-25T10:46:06.772Z,1002.31
2019-04-25T10:47:06.751Z,1002.50
2019-04-25T10:48:06.731Z,1002.32
2019-04-25T10:49:06.722Z,1002.29
2019-04-25T10:50:06.707Z,1002.22
2019-04-25T10:51:06.717Z,1002.36
2019-04-25T10:52:06.687Z,1002.32
2019-04-25T10:53:07.236Z,1002.26
2019-04-25T10:54:08.290Z,1002.12
2019-04-25T10:55:06.651Z,1002.15
2019-04-25T10:56:06.673Z,1002.33
2019-04-25T10:57:07.213Z,1002.31
2019-04-25T10:58:07.212Z,1002.26
2019-04-25T10:59:06.609Z,1002.13
2019-04-25T11:00:09.481Z,1002.18
2019-04-25T11:01:06.625Z,1002.19
2019-04-25T11:02:06.578Z,1002.22
2019-04-25T11:03:06.563Z,1002.12
2019-04-25T11:04:07.271Z,1002.09
2019-04-25T11:05:06.544Z,1002.14
2019-04-25T11:06:06.575Z,1002.25
2019-04-25T11:07:06.527Z,1002.20
2019-04-25T11:08:07.345Z,1002.15
2019-04-25T11:09:06.510Z,1002.07
2019-04-25T11:10:06.590Z,1002.10
2019-04-25T11:11:06.545Z,1002.10
2019-04-25T11:12:06.474Z,1002.16
2019-04-25T11:13:06.468Z,1002.13
2019-04-25T11:14:07.562Z,1002.11
2019-04-25T11:15:06.448Z,1002.11
2019-04-25T11:16:06.485Z,1002.07
2019-04-25T11:17:06.439Z,1001.91
2019-04-25T11:18:06.428Z,1002.08
2019-04-25T11:19:06.395Z,1001.95
2019-04-25T11:20:06.389Z,1002.25
2019-04-25T11:21:06.391Z,1002.13
2019-04-25T11:22:06.380Z,1002.12
2019-04-25T11:23:07.215Z,1002.17
2019-04-25T11:24:06.342Z,1002.18
2019-04-25T11:25:06.364Z,1002.04
2019-04-25T11:26:06.353Z,1002.53
2019-04-25T11:27:06.739Z,1002.16
2019-04-25T11:28:07.226Z,1002.13
2019-04-25T11:29:07.221Z,1002.03
2019-04-25T11:30:10.912Z,1002.20
2019-04-25T11:31:06.272Z,1002.01
2019-04-25T11:32:06.279Z,1002.14
2019-04-25T11:33:06.261Z,1002.03
2019-04-25T11:34:06.248Z,1002.20
2019-04-25T11:35:07.216Z,1002.03
2019-04-25T11:36:06.216Z,1002.09
2019-04-25T11:37:06.222Z,1002.26
2019-04-25T11:38:06.717Z,1002.17
2019-04-25T11:39:06.183Z,1002.16
2019-04-25T11:40:06.186Z,1002.27
2019-04-25T11:41:06.195Z,1002.19
2019-04-25T11:42:06.249Z,1002.30
2019-04-25T11:43:06.137Z,1002.22
2019-04-25T11:44:06.717Z,1002.18
2019-04-25T11:45:06.140Z,1002.29
2019-04-25T11:46:06.740Z,1002.28
2019-04-25T11:47:08.530Z,1002.26
2019-04-25T11:48:06.737Z,1002.13
2019-04-25T11:49:06.080Z,1002.16
2019-04-25T11:50:06.086Z,1002.13
2019-04-25T11:51:06.063Z,1002.04
2019-04-25T11:52:06.248Z,1001.96
2019-04-25T11:53:06.042Z,1002.11
2019-04-25T11:54:06.024Z,1001.95
2019-04-25T11:55:06.009Z,1001.96
2019-04-25T11:56:05.028Z,1001.97
2019-04-25T11:57:06.011Z,1002.04
2019-04-25T11:58:06.735Z,1001.90
2019-04-25T11:59:06.723Z,1001.93
2019-04-25T12:00:05.952Z,1001.82
2019-04-25T12:01:06.736Z,1001.84
2019-04-25T12:02:06.228Z,1001.86
2019-04-25T12:03:05.945Z,1001.81
2019-04-25T12:04:05.922Z,1001.83
2019-04-25T12:05:05.905Z,1001.74